Time;durP1;ratioP1;P1;durP2;ratioP2;P2;SDS_P1;SDS_P2;PMS_P1;PMS_P2;Temp;Humidity;BMP_temperature;BMP_pressure;BME280_temperature;BME280_humidity;BME280_pressure;Samples;Min_cycle;Max_cycle;Signal;HPM_P1;HPM_P2
2021/10/10 00:00:59;;;;;;;34.10;24.60;;;7.60;99.90;;;;;;4893886;29;20238;-81
2021/10/10 00:03:27;;;;;;;33.70;22.90;;;7.60;99.90;;;;;;4893219;29;20211;-80
2021/10/10 00:05:53;;;;;;;36.40;24.83;;;7.60;99.90;;;;;;4893457;29;20222;-80
2021/10/10 00:08:21;;;;;;;35.10;25.30;;;7.60;99.90;;;;;;4893770;29;20214;-80
2021/10/10 00:10:48;;;;;;;35.13;25.43;;;7.60;99.90;;;;;;4911513;29;20214;-83
2021/10/10 00:13:15;;;;;;;34.20;24.13;;;7.60;99.90;;;;;;4911301;29;20211;-81
2021/10/10 00:15:42;;;;;;;32.20;23.33;;;7.60;99.90;;;;;;4912408;29;20210;-82
2021/10/10 00:18:09;;;;;;;36.67;24.90;;;7.50;99.90;;;;;;4905094;29;20220;-81
2021/10/10 00:20:37;;;;;;;35.17;24.80;;;7.50;99.90;;;;;;4913023;29;20256;-81
2021/10/10 00:23:04;;;;;;;34.53;26.00;;;7.50;99.90;;;;;;4913555;29;20206;-85
2021/10/10 00:25:31;;;;;;;31.70;23.00;;;7.50;99.90;;;;;;4911614;29;20207;-83
2021/10/10 00:27:57;;;;;;;31.87;23.60;;;7.50;99.90;;;;;;4916468;29;20213;-84
2021/10/10 00:30:25;;;;;;;30.43;22.67;;;7.40;99.90;;;;;;4915892;29;20234;-84
2021/10/10 00:32:52;;;;;;;35.57;24.50;;;7.40;99.90;;;;;;4916152;29;20210;-84
2021/10/10 00:35:20;;;;;;;34.57;24.13;;;7.40;99.90;;;;;;4912162;29;20238;-83
2021/10/10 00:37:48;;;;;;;32.87;24.40;;;7.40;99.90;;;;;;4896372;29;20885;-83
2021/10/10 00:40:15;;;;;;;32.93;22.93;;;7.30;99.90;;;;;;4896121;29;20230;-83
2021/10/10 00:42:43;;;;;;;31.13;22.10;;;7.30;99.90;;;;;;4896151;29;20212;-83
2021/10/10 00:45:10;;;;;;;34.40;23.67;;;7.30;99.90;;;;;;4892884;29;20211;-82
2021/10/10 00:47:38;;;;;;;35.77;24.43;;;7.30;99.90;;;;;;4893242;29;20214;-84
2021/10/10 00:50:06;;;;;;;32.10;24.70;;;7.30;99.90;;;;;;4893090;29;20403;-82
2021/10/10 00:52:35;;;;;;;36.40;24.67;;;7.30;99.90;;;;;;4893168;29;20211;-83
2021/10/10 00:55:04;;;;;;;34.20;24.07;;;7.30;99.90;;;;;;4895256;29;20215;-83
2021/10/10 00:57:32;;;;;;;30.13;22.43;;;7.20;99.90;;;;;;4895641;29;20214;-82
2021/10/10 01:00:00;;;;;;;31.00;23.57;;;7.20;99.90;;;;;;4895471;29;20227;-82
2021/10/10 01:02:27;;;;;;;32.63;24.30;;;7.10;99.90;;;;;;4895140;29;20211;-83
2021/10/10 01:04:53;;;;;;;30.77;23.73;;;7.10;99.90;;;;;;4895385;29;20207;-81
2021/10/10 01:07:21;;;;;;;30.30;23.87;;;7.10;99.90;;;;;;4893692;29;20214;-83
2021/10/10 01:09:48;;;;;;;29.07;22.87;;;7.10;99.90;;;;;;4897678;29;20294;-83
2021/10/10 01:12:17;;;;;;;28.23;22.90;;;7.00;99.90;;;;;;4913080;29;20587;-85
2021/10/10 01:14:43;;;;;;;29.07;22.37;;;7.00;99.90;;;;;;4912416;29;20218;-85
2021/10/10 01:17:10;;;;;;;30.47;23.83;;;7.00;99.90;;;;;;4912444;29;20675;-85
2021/10/10 01:19:39;;;;;;;28.87;23.17;;;7.00;99.90;;;;;;4911833;29;20206;-83
2021/10/10 01:22:07;;;;;;;29.13;25.30;;;7.00;99.90;;;;;;4912345;29;20203;-82
2021/10/10 01:24:34;;;;;;;29.03;24.13;;;7.00;99.90;;;;;;4901799;29;20214;-80
2021/10/10 01:27:01;;;;;;;25.70;22.90;;;7.00;99.90;;;;;;4913111;29;20690;-83
2021/10/10 01:29:28;;;;;;;24.57;20.40;;;6.90;99.90;;;;;;4912591;29;20241;-83
2021/10/10 01:31:55;;;;;;;22.90;19.27;;;6.90;99.90;;;;;;4912879;29;20242;-81
2021/10/10 01:34:22;;;;;;;23.47;20.37;;;6.90;99.90;;;;;;4911839;29;20207;-81
2021/10/10 01:36:48;;;;;;;23.77;21.20;;;6.90;99.90;;;;;;4911388;29;20266;-82
2021/10/10 01:39:17;;;;;;;25.30;21.60;;;6.80;99.90;;;;;;4897247;29;20612;-83
2021/10/10 01:41:43;;;;;;;24.30;21.13;;;6.90;99.90;;;;;;4891989;29;20552;-84
2021/10/10 01:44:14;;;;;;;22.73;20.27;;;6.80;99.90;;;;;;4893167;29;20203;-84
2021/10/10 01:46:41;;;;;;;23.13;20.27;;;6.80;99.90;;;;;;4892895;29;20199;-83
2021/10/10 01:49:09;;;;;;;25.87;21.63;;;6.80;99.90;;;;;;4892646;29;20222;-81
2021/10/10 01:51:36;;;;;;;24.00;20.57;;;6.80;99.90;;;;;;4892037;29;20204;-80
2021/10/10 01:54:03;;;;;;;23.23;19.87;;;6.80;99.90;;;;;;4893090;29;20896;-80
2021/10/10 01:56:31;;;;;;;23.83;19.93;;;6.80;99.90;;;;;;4890326;29;20203;-82
2021/10/10 01:58:58;;;;;;;22.50;19.93;;;6.70;99.90;;;;;;4891891;29;20238;-84
2021/10/10 02:01:25;;;;;;;26.40;22.43;;;6.70;99.90;;;;;;4892805;29;20235;-85
2021/10/10 02:03:51;;;;;;;29.73;24.10;;;6.70;99.90;;;;;;4899233;29;20215;-84
2021/10/10 02:06:18;;;;;;;26.30;22.60;;;6.70;99.90;;;;;;4913381;29;20202;-84
2021/10/10 02:08:45;;;;;;;25.43;21.77;;;6.70;99.90;;;;;;4913030;29;20274;-84
2021/10/10 02:11:12;;;;;;;26.07;20.77;;;6.60;99.90;;;;;;4913858;29;20236;-82
2021/10/10 02:13:40;;;;;;;24.20;20.10;;;6.60;99.90;;;;;;4910509;29;20973;-82
2021/10/10 02:16:07;;;;;;;23.47;20.80;;;6.60;99.90;;;;;;4911105;29;20210;-83
2021/10/10 02:18:34;;;;;;;22.77;20.00;;;6.60;99.90;;;;;;4903625;29;20235;-81
2021/10/10 02:21:01;;;;;;;23.00;19.73;;;6.60;99.90;;;;;;4892901;29;20246;-83
2021/10/10 02:23:28;;;;;;;25.30;21.73;;;6.60;99.90;;;;;;4891634;29;20207;-81
2021/10/10 02:25:54;;;;;;;24.47;20.40;;;6.60;99.90;;;;;;4892067;29;20211;-84
2021/10/10 02:28:21;;;;;;;24.73;19.93;;;6.60;99.90;;;;;;4893675;29;20222;-82
2021/10/10 02:30:50;;;;;;;25.83;21.33;;;6.50;99.90;;;;;;4893584;29;20543;-81
2021/10/10 02:33:17;;;;;;;24.53;20.77;;;6.50;99.90;;;;;;4893299;29;20199;-82
2021/10/10 02:35:45;;;;;;;25.03;20.53;;;6.50;99.90;;;;;;4893320;29;20285;-82
2021/10/10 02:38:12;;;;;;;24.40;20.33;;;6.50;99.90;;;;;;4891154;29;20214;-85
2021/10/10 02:40:39;;;;;;;24.87;20.63;;;6.50;99.90;;;;;;4891695;29;20549;-83
2021/10/10 02:43:05;;;;;;;26.90;21.13;;;6.50;99.90;;;;;;4893008;29;20211;-84
2021/10/10 02:45:32;;;;;;;27.43;22.07;;;6.50;99.90;;;;;;4896235;29;20215;-81
2021/10/10 02:48:01;;;;;;;27.47;21.27;;;6.50;99.90;;;;;;4911688;29;20211;-83
2021/10/10 02:50:28;;;;;;;27.13;21.27;;;6.50;99.90;;;;;;4911516;29;20207;-81
2021/10/10 02:52:55;;;;;;;26.87;21.47;;;6.40;99.90;;;;;;4911720;29;20205;-81
2021/10/10 02:55:22;;;;;;;28.90;22.53;;;6.40;99.90;;;;;;4911166;29;20330;-80
2021/10/10 02:57:49;;;;;;;30.33;23.13;;;6.40;99.90;;;;;;4912526;29;20218;-85
2021/10/10 03:00:16;;;;;;;33.47;24.93;;;6.40;99.90;;;;;;4911298;29;20199;-84
2021/10/10 03:02:42;;;;;;;36.97;26.67;;;6.50;99.90;;;;;;4905265;29;20203;-83
2021/10/10 03:05:11;;;;;;;33.50;25.30;;;6.50;99.90;;;;;;4893099;29;20213;-83
2021/10/10 03:07:38;;;;;;;33.83;24.80;;;6.50;99.90;;;;;;4893040;29;20222;-81
2021/10/10 03:10:05;;;;;;;32.93;23.57;;;6.50;99.90;;;;;;4893107;29;20232;-84
2021/10/10 03:12:32;;;;;;;33.53;24.27;;;6.50;99.90;;;;;;4892538;29;20214;-81
2021/10/10 03:14:59;;;;;;;34.33;24.63;;;6.50;99.90;;;;;;4907383;29;20243;-82
2021/10/10 03:17:26;;;;;;;31.27;23.57;;;6.50;99.90;;;;;;4903444;29;20961;-79
2021/10/10 03:19:53;;;;;;;33.03;24.50;;;6.50;99.90;;;;;;4893186;29;20218;-83
2021/10/10 03:22:21;;;;;;;29.70;22.60;;;6.50;99.90;;;;;;4893588;29;20542;-84
2021/10/10 03:24:48;;;;;;;28.33;22.23;;;6.40;99.90;;;;;;4893707;29;20203;-82
2021/10/10 03:27:14;;;;;;;28.80;21.90;;;6.40;99.90;;;;;;4890964;29;20219;-85
2021/10/10 03:29:41;;;;;;;32.87;23.70;;;6.40;99.90;;;;;;4894009;29;20710;-86
2021/10/10 03:32:08;;;;;;;28.67;22.53;;;6.40;99.90;;;;;;4913151;29;20779;-85
2021/10/10 03:34:35;;;;;;;29.80;21.67;;;6.30;99.90;;;;;;4910376;29;20219;-84
2021/10/10 03:37:02;;;;;;;29.27;22.57;;;6.30;99.90;;;;;;4911779;29;20210;-86
2021/10/10 03:39:30;;;;;;;31.30;23.73;;;6.30;99.90;;;;;;4890940;29;20204;-85
2021/10/10 03:41:57;;;;;;;28.27;21.70;;;6.30;99.90;;;;;;4889833;29;20231;-82
2021/10/10 03:44:24;;;;;;;26.77;20.37;;;6.30;99.90;;;;;;4896833;29;20217;-84
2021/10/10 03:46:51;;;;;;;24.90;19.57;;;6.30;99.90;;;;;;4911293;29;20206;-81
2021/10/10 03:49:17;;;;;;;25.70;19.97;;;6.30;99.90;;;;;;4911315;29;20207;-85
2021/10/10 03:51:44;;;;;;;27.60;20.80;;;6.30;99.90;;;;;;4911329;29;20210;-81
2021/10/10 03:57:02;;;;;;;27.53;20.57;;;6.30;99.90;;;;;;4909947;29;20206;-83
2021/10/10 03:59:29;;;;;;;28.67;21.80;;;6.30;99.90;;;;;;4909650;29;20215;-82
2021/10/10 04:02:03;;;;;;;28.73;20.93;;;6.30;99.90;;;;;;4897391;29;20254;-82
2021/10/10 04:04:33;;;;;;;24.83;19.90;;;6.30;99.90;;;;;;4890911;29;20234;-81
2021/10/10 04:06:59;;;;;;;30.60;21.13;;;6.30;99.90;;;;;;4891184;29;20302;-83
2021/10/10 04:09:26;;;;;;;25.77;20.13;;;6.30;99.90;;;;;;4890556;29;20216;-85
2021/10/10 04:11:53;;;;;;;29.97;21.90;;;6.30;99.90;;;;;;4891426;29;20215;-83
2021/10/10 04:14:21;;;;;;;25.03;19.60;;;6.30;99.90;;;;;;4891272;29;20211;-83
2021/10/10 04:16:48;;;;;;;28.83;21.50;;;6.30;99.90;;;;;;4891535;29;20207;-80
2021/10/10 04:19:15;;;;;;;27.47;20.60;;;6.30;99.90;;;;;;4892114;29;20227;-82
2021/10/10 04:21:41;;;;;;;25.60;19.30;;;6.30;99.90;;;;;;4890851;29;20242;-80
2021/10/10 04:24:08;;;;;;;28.07;20.90;;;6.30;99.90;;;;;;4891395;29;20218;-80
2021/10/10 04:26:35;;;;;;;27.07;19.67;;;6.30;99.90;;;;;;4891404;29;20204;-80
2021/10/10 04:29:02;;;;;;;25.47;19.57;;;6.30;99.90;;;;;;4898971;29;20221;-82
2021/10/10 04:31:30;;;;;;;32.20;23.53;;;6.30;99.90;;;;;;4910689;29;20810;-83
2021/10/10 04:33:57;;;;;;;26.33;21.30;;;6.30;99.90;;;;;;4911366;29;20206;-83
2021/10/10 04:36:24;;;;;;;26.73;20.97;;;6.30;99.90;;;;;;4909941;29;20211;-84
2021/10/10 04:38:50;;;;;;;25.80;19.50;;;6.20;99.90;;;;;;4900671;29;20208;-85
2021/10/10 04:41:17;;;;;;;27.30;20.03;;;6.20;99.90;;;;;;4891706;29;20234;-83
2021/10/10 04:43:44;;;;;;;28.03;21.30;;;6.20;99.90;;;;;;4891165;29;20219;-83
2021/10/10 04:46:11;;;;;;;27.50;20.13;;;6.20;99.90;;;;;;4907338;29;20500;-82
2021/10/10 04:48:39;;;;;;;24.33;19.87;;;6.20;99.90;;;;;;4913909;29;20504;-82
2021/10/10 04:51:06;;;;;;;24.90;19.60;;;6.30;99.90;;;;;;4913512;29;20203;-82
2021/10/10 04:53:33;;;;;;;28.40;21.43;;;6.30;99.90;;;;;;4897527;29;20215;-84
2021/10/10 04:56:00;;;;;;;30.07;21.60;;;6.30;99.90;;;;;;4894419;29;20805;-82
2021/10/10 04:58:26;;;;;;;29.67;22.10;;;6.30;99.90;;;;;;4892207;29;20220;-80
2021/10/10 05:00:53;;;;;;;38.33;26.63;;;6.30;99.90;;;;;;4892620;29;20218;-83
2021/10/10 05:03:20;;;;;;;34.27;26.40;;;6.40;99.90;;;;;;4893618;29;20235;-85
2021/10/10 05:05:48;;;;;;;32.67;25.03;;;6.50;99.90;;;;;;4899228;29;20214;-80
2021/10/10 05:08:15;;;;;;;32.33;25.80;;;6.50;99.90;;;;;;4912265;29;20746;-83
2021/10/10 05:10:42;;;;;;;34.80;26.83;;;6.70;99.90;;;;;;4913130;29;20841;-79
2021/10/10 05:13:09;;;;;;;31.07;23.57;;;6.80;99.90;;;;;;4889376;29;20207;-84
2021/10/10 05:15:36;;;;;;;32.23;24.23;;;6.90;99.90;;;;;;4893377;29;20203;-83
2021/10/10 05:18:03;;;;;;;29.17;22.27;;;6.90;99.90;;;;;;4905012;29;20631;-80
2021/10/10 05:20:30;;;;;;;29.10;23.40;;;6.90;99.90;;;;;;4912100;29;20651;-80
2021/10/10 05:22:58;;;;;;;28.43;23.43;;;6.90;99.90;;;;;;4911768;29;20222;-81
2021/10/10 05:25:25;;;;;;;27.90;22.53;;;6.90;99.90;;;;;;4911803;29;20219;-81
2021/10/10 05:27:51;;;;;;;29.20;22.73;;;6.90;99.90;;;;;;4911191;29;20210;-83
2021/10/10 05:30:18;;;;;;;26.43;21.73;;;6.90;99.90;;;;;;4912155;29;20214;-82
2021/10/10 05:32:45;;;;;;;30.07;21.50;;;6.90;99.90;;;;;;4897738;29;20533;-84
2021/10/10 05:35:12;;;;;;;26.57;20.77;;;7.00;99.90;;;;;;4892776;29;20226;-80
2021/10/10 05:37:39;;;;;;;23.43;19.00;;;7.00;99.90;;;;;;4892416;29;20207;-83
2021/10/10 05:40:09;;;;;;;21.40;17.37;;;7.00;99.90;;;;;;4893180;29;20552;-80
2021/10/10 05:42:35;;;;;;;19.27;17.07;;;7.00;99.90;;;;;;4892396;29;20234;-80
2021/10/10 05:45:02;;;;;;;19.73;15.97;;;7.00;99.90;;;;;;4893991;29;20211;-81
2021/10/10 05:47:29;;;;;;;18.60;16.10;;;7.00;99.90;;;;;;4894521;29;20206;-81
2021/10/10 05:49:56;;;;;;;17.23;14.87;;;6.90;99.90;;;;;;4907648;29;20863;-85
2021/10/10 05:52:25;;;;;;;16.03;13.60;;;6.90;99.90;;;;;;4912629;29;20206;-84
2021/10/10 05:54:52;;;;;;;16.17;13.97;;;6.90;99.90;;;;;;4912051;29;20206;-84
2021/10/10 05:57:23;;;;;;;19.30;15.07;;;6.80;99.90;;;;;;4910666;29;20497;-82
2021/10/10 05:59:55;;;;;;;16.87;14.87;;;6.80;99.90;;;;;;4911133;29;20218;-85
2021/10/10 06:02:21;;;;;;;17.90;14.27;;;6.90;99.90;;;;;;4910257;29;20233;-85
2021/10/10 06:04:48;;;;;;;19.33;17.23;;;6.90;99.90;;;;;;4910657;29;20210;-83
2021/10/10 06:07:15;;;;;;;21.40;16.90;;;6.80;99.90;;;;;;4911762;29;20473;-82
2021/10/10 06:09:42;;;;;;;15.80;14.10;;;6.90;99.90;;;;;;4911571;29;20604;-83
2021/10/10 06:12:09;;;;;;;20.50;18.30;;;6.80;99.90;;;;;;4899936;29;20214;-85
2021/10/10 06:14:38;;;;;;;18.60;16.07;;;6.90;99.90;;;;;;4893847;29;20207;-85
2021/10/10 06:17:05;;;;;;;18.13;15.73;;;6.90;99.90;;;;;;4904712;29;20564;-84
2021/10/10 06:19:32;;;;;;;18.07;15.10;;;6.90;99.90;;;;;;4910907;29;20221;-83
2021/10/10 06:21:59;;;;;;;17.60;14.90;;;6.90;99.90;;;;;;4892573;29;20223;-82
2021/10/10 06:24:26;;;;;;;16.07;14.10;;;6.90;99.90;;;;;;4895897;29;20790;-83
2021/10/10 06:26:56;;;;;;;20.00;15.40;;;6.90;99.90;;;;;;4893562;29;20222;-82
2021/10/10 06:29:24;;;;;;;25.67;19.93;;;6.90;99.90;;;;;;4898061;29;20278;-81
2021/10/10 06:31:53;;;;;;;24.23;18.10;;;7.00;99.90;;;;;;4910151;29;20245;-82
2021/10/10 06:34:19;;;;;;;24.13;17.57;;;7.00;99.90;;;;;;4911184;29;20214;-86
2021/10/10 06:36:46;;;;;;;23.63;18.60;;;7.10;99.90;;;;;;4910160;29;20226;-83
2021/10/10 06:39:15;;;;;;;21.77;18.03;;;7.20;99.90;;;;;;4911161;29;20210;-82
2021/10/10 06:41:43;;;;;;;25.30;20.03;;;7.20;99.90;;;;;;4911472;29;20262;-83
2021/10/10 06:44:09;;;;;;;20.87;17.47;;;7.20;99.90;;;;;;4899547;29;20218;-82
2021/10/10 06:46:36;;;;;;;27.27;19.03;;;7.30;99.90;;;;;;4891587;29;20545;-84
2021/10/10 06:49:04;;;;;;;23.90;18.63;;;7.40;99.90;;;;;;4905448;29;20638;-88
2021/10/10 06:51:31;;;;;;;27.10;21.60;;;7.40;99.90;;;;;;4910869;29;20213;-82
2021/10/10 06:53:58;;;;;;;32.00;23.50;;;7.50;99.90;;;;;;4910240;29;20578;-79
2021/10/10 06:56:25;;;;;;;29.73;22.00;;;7.60;99.90;;;;;;4894015;29;20581;-82
2021/10/10 06:58:52;;;;;;;30.07;21.40;;;7.70;99.90;;;;;;4892737;29;20239;-84
2021/10/10 07:01:18;;;;;;;28.10;21.20;;;7.80;99.90;;;;;;4892960;29;20296;-83
2021/10/10 07:03:45;;;;;;;25.40;21.07;;;7.80;99.90;;;;;;4909279;29;20738;-81
2021/10/10 07:06:13;;;;;;;29.50;24.00;;;7.90;99.90;;;;;;4909646;29;20213;-82
2021/10/10 07:08:40;;;;;;;31.53;23.67;;;8.00;99.90;;;;;;4910212;29;20291;-83
2021/10/10 07:11:07;;;;;;;31.33;22.87;;;8.10;99.90;;;;;;4910347;29;20218;-85
2021/10/10 07:13:40;;;;;;;29.63;23.13;;;8.20;99.90;;;;;;4869937;29;20205;-84
2021/10/10 07:16:07;;;;;;;29.07;21.93;;;8.30;99.90;;;;;;4910084;29;20214;-82
2021/10/10 07:18:42;;;;;;;34.57;24.43;;;8.40;99.90;;;;;;4910683;29;20227;-83
2021/10/10 07:21:19;;;;;;;30.43;22.93;;;8.50;99.90;;;;;;4894117;29;20244;-84
2021/10/10 07:24:07;;;;;;;29.57;21.13;;;8.50;99.90;;;;;;4890996;29;20234;-83
2021/10/10 07:26:34;;;;;;;30.60;22.63;;;8.60;99.90;;;;;;4890833;29;20702;-82
2021/10/10 07:29:02;;;;;;;32.60;25.57;;;8.70;99.90;;;;;;4887985;29;20496;-83
2021/10/10 07:31:29;;;;;;;27.20;22.30;;;8.80;99.90;;;;;;4891385;29;20247;-83
2021/10/10 07:33:56;;;;;;;30.57;23.20;;;8.80;99.90;;;;;;4909658;29;20229;-83
2021/10/10 07:36:22;;;;;;;28.90;22.80;;;8.90;99.90;;;;;;4910744;29;20219;-84
2021/10/10 07:38:51;;;;;;;28.80;22.20;;;8.90;99.90;;;;;;4910831;29;20249;-82
2021/10/10 07:41:17;;;;;;;30.87;23.67;;;9.00;99.90;;;;;;4910080;29;20218;-83
2021/10/10 07:43:44;;;;;;;29.30;23.90;;;9.10;99.90;;;;;;4910362;29;20241;-83
2021/10/10 07:46:19;;;;;;;26.17;20.93;;;9.10;99.90;;;;;;4898696;29;20238;-83
2021/10/10 07:48:46;;;;;;;30.87;23.10;;;9.20;99.90;;;;;;4891422;29;20501;-83
2021/10/10 07:51:13;;;;;;;37.13;25.70;;;9.30;99.90;;;;;;4891283;29;20213;-84
2021/10/10 07:53:40;;;;;;;39.40;28.03;;;9.40;99.90;;;;;;4890652;29;20230;-83
2021/10/10 07:56:08;;;;;;;41.60;30.00;;;9.50;99.90;;;;;;4891726;29;20210;-84
2021/10/10 07:58:35;;;;;;;40.53;30.50;;;9.60;99.90;;;;;;4891015;29;20203;-84
2021/10/10 08:01:02;;;;;;;44.13;33.60;;;9.70;99.90;;;;;;4890530;29;20206;-82
2021/10/10 08:03:29;;;;;;;50.60;36.57;;;9.80;99.90;;;;;;4910010;29;20297;-84
2021/10/10 08:05:55;;;;;;;51.77;36.93;;;9.90;99.90;;;;;;4906579;29;20218;-83
2021/10/10 08:08:22;;;;;;;48.07;36.27;;;9.90;99.90;;;;;;4891216;29;20633;-85
2021/10/10 08:10:49;;;;;;;43.40;31.43;;;10.00;99.90;;;;;;4908082;29;20517;-87
2021/10/10 08:13:17;;;;;;;41.13;31.67;;;10.10;99.90;;;;;;4912483;29;20659;-87
2021/10/10 08:15:44;;;;;;;42.17;30.60;;;10.20;99.90;;;;;;4912267;29;20243;-84
2021/10/10 08:18:11;;;;;;;40.53;31.27;;;10.20;99.90;;;;;;4911468;29;20241;-87
2021/10/10 08:20:39;;;;;;;44.30;31.93;;;10.20;99.90;;;;;;4912817;29;20614;-85
2021/10/10 08:23:09;;;;;;;42.17;29.63;;;10.20;99.90;;;;;;4915090;29;20274;-86
2021/10/10 08:25:37;;;;;;;40.30;30.33;;;10.20;99.90;;;;;;4904748;29;20242;-85
2021/10/10 08:28:05;;;;;;;43.17;30.40;;;10.30;99.90;;;;;;4897489;29;20494;-84
2021/10/10 08:30:33;;;;;;;51.37;36.37;;;10.30;99.90;;;;;;4897065;29;20375;-85
2021/10/10 08:33:00;;;;;;;50.33;34.90;;;10.40;99.90;;;;;;4897782;29;20210;-85
2021/10/10 08:35:27;;;;;;;57.73;39.07;;;10.50;99.90;;;;;;4897937;29;20290;-83
2021/10/10 08:37:54;;;;;;;66.40;42.90;;;10.60;99.90;;;;;;4912792;29;20222;-81
2021/10/10 08:40:20;;;;;;;67.10;45.43;;;10.70;99.90;;;;;;4916016;29;20211;-85
2021/10/10 08:42:50;;;;;;;82.43;51.00;;;10.90;99.90;;;;;;4916122;29;20234;-84
2021/10/10 08:45:19;;;;;;;87.57;52.50;;;11.10;99.90;;;;;;4907578;29;20214;-84
2021/10/10 08:47:49;;;;;;;90.87;53.97;;;11.20;99.90;;;;;;4896527;29;20214;-83
2021/10/10 08:50:18;;;;;;;91.13;53.03;;;11.40;99.90;;;;;;4907429;29;20241;-85
2021/10/10 08:52:45;;;;;;;85.73;51.03;;;11.60;99.90;;;;;;4915041;29;20198;-84
2021/10/10 08:55:13;;;;;;;90.20;53.03;;;11.80;99.90;;;;;;4915855;29;20222;-88
2021/10/10 08:57:40;;;;;;;76.63;48.10;;;11.90;99.90;;;;;;4916422;29;20210;-84
2021/10/10 09:00:11;;;;;;;83.50;49.27;;;12.10;99.90;;;;;;4915795;29;20667;-85
2021/10/10 09:02:40;;;;;;;93.67;54.37;;;12.20;99.90;;;;;;4903421;29;20313;-84
2021/10/10 09:05:10;;;;;;;84.00;51.77;;;12.30;99.90;;;;;;4896774;29;20293;-83
2021/10/10 09:07:37;;;;;;;92.30;52.93;;;12.50;99.90;;;;;;4913105;29;20221;-84
2021/10/10 09:10:19;;;;;;;89.93;53.87;;;12.60;99.90;;;;;;4914308;29;20199;-85
2021/10/10 09:12:46;;;;;;;84.97;52.47;;;12.60;99.90;;;;;;4913612;29;20215;-85
2021/10/10 09:15:17;;;;;;;102.80;59.50;;;12.80;99.90;;;;;;4913758;29;20280;-83
2021/10/10 09:17:56;;;;;;;106.30;59.30;;;12.90;99.90;;;;;;4914273;29;20787;-90
2021/10/10 09:20:36;;;;;;;91.10;52.50;;;13.00;99.90;;;;;;4909454;29;20245;-90
2021/10/10 09:23:05;;;;;;;88.93;51.13;;;13.20;99.90;;;;;;4910795;29;20658;-89
2021/10/10 09:25:33;;;;;;;86.50;52.40;;;13.20;99.90;;;;;;4911855;29;20210;-89
2021/10/10 09:28:19;;;;;;;113.50;64.47;;;13.40;99.90;;;;;;4916167;29;20226;-87
2021/10/10 09:30:49;;;;;;;106.10;62.83;;;13.60;99.90;;;;;;4918765;29;20254;-89
2021/10/10 09:33:16;;;;;;;113.53;63.97;;;13.80;99.90;;;;;;4934548;29;20209;-88
2021/10/10 09:35:44;;;;;;;100.20;59.90;;;13.90;99.90;;;;;;4934555;29;20312;-90
2021/10/10 09:38:15;;;;;;;80.07;50.67;;;14.00;99.90;;;;;;4934869;29;20638;-90
2021/10/10 09:40:49;;;;;;;83.53;51.33;;;14.00;99.90;;;;;;4934744;29;20228;-87
2021/10/10 09:43:16;;;;;;;81.67;50.70;;;13.90;99.90;;;;;;4931683;29;20245;-82
2021/10/10 09:45:53;;;;;;;73.17;48.10;;;14.00;99.90;;;;;;4934831;29;20221;-90
2021/10/10 09:48:33;;;;;;;64.40;43.07;;;14.10;99.90;;;;;;4932222;29;20229;-88
2021/10/10 09:51:01;;;;;;;65.17;44.83;;;14.20;99.90;;;;;;4927547;29;20214;-86
2021/10/10 09:53:32;;;;;;;63.30;43.07;;;14.20;99.90;;;;;;4932687;29;20233;-86
2021/10/10 09:56:03;;;;;;;59.57;40.93;;;14.30;99.90;;;;;;4933133;29;20209;-86
2021/10/10 09:58:37;;;;;;;48.73;36.53;;;14.40;99.90;;;;;;4933285;29;20272;-88
2021/10/10 10:01:15;;;;;;;49.73;36.60;;;14.50;99.90;;;;;;4933167;29;20250;-86
2021/10/10 10:03:56;;;;;;;48.77;34.47;;;14.70;99.90;;;;;;4933900;29;20636;-87
2021/10/10 10:06:26;;;;;;;40.90;31.87;;;14.80;99.90;;;;;;4931434;29;20213;-87
2021/10/10 10:08:55;;;;;;;37.10;29.70;;;14.90;99.90;;;;;;4930352;29;20216;-87
2021/10/10 10:11:23;;;;;;;34.43;27.90;;;15.00;99.90;;;;;;4932908;29;20206;-84
2021/10/10 10:13:51;;;;;;;30.83;24.37;;;15.10;99.90;;;;;;4934095;29;20292;-88
2021/10/10 10:16:18;;;;;;;31.03;24.43;;;15.20;99.90;;;;;;4931550;29;20213;-85
2021/10/10 10:18:45;;;;;;;33.75;26.00;;;15.40;99.90;;;;;;4933275;29;20655;-87
2021/10/10 10:21:14;;;;;;;29.67;24.17;;;15.50;99.90;;;;;;4933113;29;20221;-84
2021/10/10 10:23:44;;;;;;;30.40;25.40;;;15.70;99.90;;;;;;4933843;29;20234;-84
2021/10/10 10:26:12;;;;;;;27.80;23.58;;;15.90;99.90;;;;;;4933429;29;20221;-86
2021/10/10 10:28:39;;;;;;;28.73;23.50;;;15.90;99.90;;;;;;4933348;29;20218;-88
2021/10/10 10:31:07;;;;;;;27.08;23.83;;;15.90;99.90;;;;;;4926751;29;20238;-87
2021/10/10 10:33:34;;;;;;;25.40;21.40;;;16.00;99.90;;;;;;4913080;29;20225;-85
2021/10/10 10:36:01;;;;;;;21.25;18.95;;;16.00;99.90;;;;;;4914400;29;20215;-86
2021/10/10 10:38:46;;;;;;;24.95;21.60;;;15.90;99.90;;;;;;4914730;29;20198;-83
2021/10/10 10:41:48;;;;;;;21.13;18.92;;;16.10;99.90;;;;;;4915702;29;20254;-87
2021/10/10 10:44:52;;;;;;;20.25;17.67;;;16.20;99.90;;;;;;4913509;29;20238;-82
2021/10/10 10:47:21;;;;;;;23.85;18.50;;;16.50;99.90;;;;;;4908818;29;20257;-84
2021/10/10 10:50:06;;;;;;;19.75;17.73;;;16.70;99.90;;;;;;4914590;29;20635;-88
2021/10/10 10:52:35;;;;;;;19.65;16.58;;;16.70;99.90;;;;;;4914464;29;20222;-90
2021/10/10 10:55:18;;;;;;;18.45;16.45;;;16.70;99.90;;;;;;4913106;29;20254;-85
2021/10/10 10:57:51;;;;;;;21.85;18.80;;;16.60;99.90;;;;;;4914491;29;20214;-89
2021/10/10 11:00:24;;;;;;;20.63;17.05;;;16.40;99.90;;;;;;4914781;29;20366;-88
2021/10/10 11:03:09;;;;;;;18.13;16.13;;;16.30;99.90;;;;;;4898451;29;20206;-87
2021/10/10 11:05:45;;;;;;;20.20;18.00;;;16.10;99.90;;;;;;4904108;29;20218;-87
2021/10/10 11:08:43;;;;;;;18.77;16.02;;;16.10;99.90;;;;;;4910625;29;20218;-88
2021/10/10 11:11:16;;;;;;;20.30;17.42;;;16.10;99.90;;;;;;4914389;29;20187;-85
2021/10/10 11:13:50;;;;;;;19.60;17.55;;;16.00;99.90;;;;;;4905521;29;20247;-86
2021/10/10 11:16:19;;;;;;;18.92;16.88;;;16.00;99.90;;;;;;4896202;29;20214;-86
2021/10/10 11:18:49;;;;;;;18.63;15.82;;;16.00;99.90;;;;;;4896286;29;20223;-83
2021/10/10 11:21:18;;;;;;;19.92;17.00;;;16.10;99.90;;;;;;4913676;29;20198;-85
2021/10/10 11:23:50;;;;;;;17.95;15.90;;;16.10;99.90;;;;;;4913396;29;20807;-86
2021/10/10 11:26:19;;;;;;;16.48;14.82;;;16.10;99.90;;;;;;4914062;29;20234;-85
2021/10/10 11:28:47;;;;;;;17.60;15.77;;;16.10;99.90;;;;;;4914394;29;20201;-87
2021/10/10 11:31:16;;;;;;;18.80;16.60;;;16.20;99.90;;;;;;4913524;29;20253;-85
2021/10/10 11:33:45;;;;;;;18.58;16.58;;;16.30;99.90;;;;;;4913696;29;20224;-86
2021/10/10 11:36:13;;;;;;;17.02;15.10;;;16.30;99.90;;;;;;4914285;29;20211;-85
2021/10/10 11:38:54;;;;;;;18.40;15.77;;;16.40;99.90;;;;;;4913014;29;20203;-85
2021/10/10 11:41:26;;;;;;;18.58;16.63;;;16.60;99.90;;;;;;4913636;29;20761;-85
2021/10/10 11:44:04;;;;;;;17.45;15.55;;;16.80;99.90;;;;;;4905147;29;20687;-84
2021/10/10 11:46:42;;;;;;;17.50;15.18;;;16.90;99.90;;;;;;4894966;29;20183;-85
2021/10/10 11:49:31;;;;;;;18.15;15.48;;;17.00;99.90;;;;;;4894355;29;20227;-85
2021/10/10 11:52:06;;;;;;;14.98;13.30;;;17.00;99.90;;;;;;4894623;29;20770;-83
2021/10/10 11:54:37;;;;;;;12.77;10.88;;;17.00;99.90;;;;;;4894722;29;20214;-85
2021/10/10 11:57:07;;;;;;;12.27;10.52;;;17.00;99.90;;;;;;4895245;29;20235;-87
2021/10/10 11:59:34;;;;;;;12.50;10.85;;;17.10;99.90;;;;;;4894382;29;20211;-83
2021/10/10 12:02:02;;;;;;;12.98;11.77;;;17.00;99.90;;;;;;4896082;29;20511;-87
2021/10/10 12:04:29;;;;;;;13.98;12.48;;;17.10;99.90;;;;;;4913083;29;20230;-83
2021/10/10 12:06:56;;;;;;;10.38;9.48;;;17.30;99.90;;;;;;4912553;29;20240;-85
2021/10/10 12:09:23;;;;;;;10.73;9.70;;;17.30;99.90;;;;;;4907212;29;20214;-86
2021/10/10 12:12:12;;;;;;;11.65;10.25;;;17.30;99.90;;;;;;4894542;29;20211;-84
2021/10/10 12:14:47;;;;;;;12.07;10.88;;;17.30;99.90;;;;;;4898842;29;20202;-85
2021/10/10 12:17:27;;;;;;;11.88;10.75;;;17.40;99.90;;;;;;4912297;29;20517;-85
2021/10/10 12:19:54;;;;;;;11.30;10.23;;;17.50;99.90;;;;;;4911164;29;20210;-83
2021/10/10 12:22:21;;;;;;;11.15;9.90;;;17.70;99.90;;;;;;4909342;29;20228;-87
2021/10/10 12:24:48;;;;;;;11.00;9.88;;;17.80;99.90;;;;;;4911737;29;20234;-82
2021/10/10 12:27:27;;;;;;;12.10;10.77;;;17.80;99.90;;;;;;4912670;29;20218;-86
2021/10/10 12:29:54;;;;;;;12.75;11.40;;;17.80;99.90;;;;;;4911875;29;20234;-82
2021/10/10 12:32:22;;;;;;;12.40;10.88;;;17.80;99.90;;;;;;4911822;29;20678;-85
2021/10/10 12:34:50;;;;;;;13.05;10.50;;;17.70;99.90;;;;;;4909854;29;20211;-84
2021/10/10 12:37:19;;;;;;;12.07;10.85;;;17.70;99.90;;;;;;4901483;29;20211;-81
2021/10/10 12:39:47;;;;;;;11.50;9.90;;;17.60;99.90;;;;;;4892524;29;20290;-83
2021/10/10 12:42:14;;;;;;;11.32;10.23;;;17.50;99.90;;;;;;4901058;29;20233;-85
2021/10/10 12:45:03;;;;;;;11.70;9.85;;;17.50;99.90;;;;;;4912537;29;20226;-85